createdAt,value
2022-07-29T00:00:16.653Z,13.98
2022-07-29T00:01:49.344Z,13.23
2022-07-29T00:03:21.470Z,12.98
2022-07-29T00:04:53.728Z,12.07
2022-07-29T00:06:25.755Z,13.68
2022-07-29T00:07:57.956Z,12.93
2022-07-29T00:09:29.998Z,12.68
2022-07-29T00:11:02.047Z,14.18
2022-07-29T00:12:34.078Z,14.52
2022-07-29T00:14:06.810Z,13.05
2022-07-29T00:15:39.013Z,13.03
2022-07-29T00:17:11.138Z,13.63
2022-07-29T00:18:43.527Z,12.85
2022-07-29T00:20:15.599Z,12.40
2022-07-29T00:21:47.721Z,12.75
2022-07-29T00:23:19.793Z,12.18
2022-07-29T00:24:52.046Z,14.05
2022-07-29T00:26:24.110Z,13.73
2022-07-29T00:27:56.112Z,12.90
2022-07-29T00:29:35.512Z,13.27
2022-07-29T00:31:07.851Z,14.88
2022-07-29T00:32:39.918Z,12.63
2022-07-29T00:34:32.020Z,12.82
2022-07-29T00:36:04.441Z,15.20
2022-07-29T00:37:36.690Z,13.25
2022-07-29T00:39:08.772Z,14.50
2022-07-29T00:40:43.876Z,12.55
2022-07-29T00:42:17.656Z,13.20
2022-07-29T00:43:50.000Z,13.48
2022-07-29T00:45:23.365Z,13.73
2022-07-29T00:46:55.464Z,13.27
2022-07-29T00:48:27.664Z,11.75
2022-07-29T00:49:59.749Z,15.38
2022-07-29T00:51:31.992Z,13.30
2022-07-29T00:53:05.765Z,13.18
2022-07-29T00:54:44.275Z,12.98
2022-07-29T00:56:17.045Z,12.20
2022-07-29T00:57:49.215Z,12.38
2022-07-29T00:59:21.302Z,13.60
2022-07-29T01:00:53.813Z,13.23
2022-07-29T01:02:25.929Z,13.85
2022-07-29T01:03:58.024Z,13.52
2022-07-29T01:05:48.137Z,13.73
2022-07-29T01:07:24.644Z,13.85
2022-07-29T01:08:56.982Z,14.15
2022-07-29T01:10:29.479Z,12.07
2022-07-29T01:12:01.896Z,12.90
2022-07-29T01:13:34.621Z,13.90
2022-07-29T01:15:08.224Z,15.48
2022-07-29T01:17:13.924Z,11.50
2022-07-29T01:18:51.250Z,13.15
2022-07-29T01:20:31.264Z,14.32
2022-07-29T01:22:32.769Z,13.65
2022-07-29T01:24:29.050Z,13.07
2022-07-29T01:26:22.545Z,12.43
2022-07-29T01:28:16.937Z,13.07
2022-07-29T01:29:57.000Z,13.90
2022-07-29T01:31:58.460Z,13.38
2022-07-29T01:33:52.070Z,12.60
2022-07-29T01:35:35.668Z,13.50
2022-07-29T01:37:10.539Z,13.38
2022-07-29T01:38:44.666Z,13.65
2022-07-29T01:40:30.214Z,13.52
2022-07-29T01:42:22.582Z,13.77
2022-07-29T01:44:01.765Z,13.32
2022-07-29T01:45:54.872Z,12.52
2022-07-29T01:47:52.585Z,13.13
2022-07-29T01:49:30.412Z,13.15
2022-07-29T01:51:21.253Z,12.48
2022-07-29T01:53:01.755Z,12.43
2022-07-29T01:55:00.660Z,12.70
2022-07-29T01:56:35.025Z,13.77
2022-07-29T01:58:07.742Z,13.60
2022-07-29T01:59:40.391Z,13.48
2022-07-29T02:01:14.143Z,14.40
2022-07-29T02:02:48.321Z,12.70
2022-07-29T02:04:29.202Z,13.65
2022-07-29T02:07:42.006Z,14.63
2022-07-29T02:09:15.145Z,11.90
2022-07-29T02:10:49.046Z,14.55
2022-07-29T02:12:22.244Z,14.02
2022-07-29T02:13:55.607Z,13.77
2022-07-29T02:17:02.150Z,12.83
2022-07-29T02:18:35.016Z,13.43
2022-07-29T02:20:08.484Z,13.50
2022-07-29T02:21:42.200Z,13.18
2022-07-29T02:23:16.462Z,15.32
2022-07-29T02:24:49.143Z,13.70
2022-07-29T02:26:23.432Z,12.07
2022-07-29T02:27:55.739Z,12.93
2022-07-29T02:29:29.431Z,12.45
2022-07-29T02:31:03.786Z,15.65
2022-07-29T02:32:37.209Z,13.63
2022-07-29T02:34:13.659Z,14.02
2022-07-29T02:35:48.071Z,13.80
2022-07-29T02:37:20.247Z,16.73
2022-07-29T02:38:52.947Z,13.65
2022-07-29T02:40:32.400Z,14.93
2022-07-29T02:42:09.670Z,13.48
2022-07-29T02:43:43.705Z,13.77
2022-07-29T02:45:15.763Z,13.50
2022-07-29T02:47:03.899Z,14.20
2022-07-29T02:49:18.184Z,11.93
2022-07-29T02:50:52.179Z,14.07
2022-07-29T02:52:59.893Z,14.80
2022-07-29T02:54:40.793Z,13.85
2022-07-29T02:56:15.502Z,14.23
2022-07-29T02:58:02.425Z,13.82
2022-07-29T02:59:36.138Z,15.35
2022-07-29T03:01:21.840Z,13.80
2022-07-29T03:02:55.421Z,13.85
2022-07-29T03:04:29.860Z,14.63
2022-07-29T03:06:03.146Z,13.32
2022-07-29T03:09:12.893Z,12.35
2022-07-29T03:10:46.881Z,12.88
2022-07-29T03:13:51.377Z,14.43
2022-07-29T03:15:24.778Z,15.00
2022-07-29T03:16:56.975Z,14.68
2022-07-29T03:18:29.095Z,14.82
2022-07-29T03:20:01.502Z,14.77
2022-07-29T03:21:33.784Z,14.83
2022-07-29T03:23:06.064Z,14.55
2022-07-29T03:24:38.432Z,13.05
2022-07-29T03:26:10.551Z,15.33
2022-07-29T03:27:43.428Z,14.07
2022-07-29T03:29:15.450Z,14.52
2022-07-29T03:30:48.222Z,14.40
2022-07-29T03:32:23.723Z,13.60
2022-07-29T03:33:56.169Z,14.32
2022-07-29T03:35:28.336Z,14.25
2022-07-29T03:37:00.344Z,13.77
2022-07-29T03:38:35.317Z,12.57
2022-07-29T03:40:09.950Z,14.43
2022-07-29T03:41:43.293Z,14.98
2022-07-29T03:44:49.237Z,13.98
2022-07-29T03:46:23.703Z,13.70
2022-07-29T03:48:00.841Z,13.90
2022-07-29T03:49:34.287Z,16.83
2022-07-29T03:51:06.845Z,14.15
2022-07-29T03:52:39.577Z,14.77
2022-07-29T03:54:12.366Z,16.85
2022-07-29T03:55:50.210Z,14.27
2022-07-29T03:57:25.573Z,15.68
2022-07-29T03:58:57.777Z,15.20
2022-07-29T04:00:30.247Z,15.15
2022-07-29T04:02:04.291Z,15.38
2022-07-29T04:03:36.533Z,13.73
2022-07-29T04:05:14.072Z,13.40
2022-07-29T04:06:48.263Z,15.13
2022-07-29T04:08:20.622Z,14.02
2022-07-29T04:09:52.836Z,14.30
2022-07-29T04:11:24.976Z,15.50
2022-07-29T04:12:57.026Z,14.32
2022-07-29T04:14:29.098Z,13.88
2022-07-29T04:16:01.166Z,15.13
2022-07-29T04:17:33.327Z,13.55
2022-07-29T04:19:05.449Z,14.07
2022-07-29T04:20:37.512Z,14.63
2022-07-29T04:22:09.541Z,14.82
2022-07-29T04:23:52.832Z,14.10
2022-07-29T04:25:25.984Z,12.63
2022-07-29T04:26:58.018Z,15.55
2022-07-29T04:28:30.134Z,14.85
2022-07-29T04:30:02.234Z,13.25
2022-07-29T04:31:34.295Z,15.20
2022-07-29T04:33:08.380Z,14.80
2022-07-29T04:34:40.455Z,14.52
2022-07-29T04:36:28.532Z,13.27
2022-07-29T04:38:02.322Z,13.93
2022-07-29T04:39:34.604Z,15.70
2022-07-29T04:41:08.235Z,15.77
2022-07-29T04:42:46.451Z,15.15
2022-07-29T04:44:20.128Z,14.45
2022-07-29T04:45:52.307Z,15.52
2022-07-29T04:47:24.760Z,12.82
2022-07-29T04:48:57.061Z,15.23
2022-07-29T04:50:29.270Z,14.77
2022-07-29T04:52:01.500Z,14.02
2022-07-29T04:53:33.655Z,14.18
2022-07-29T04:55:06.943Z,13.15
2022-07-29T04:58:11.072Z,14.25
2022-07-29T04:59:43.109Z,13.45
2022-07-29T05:01:17.071Z,13.65
2022-07-29T05:02:49.313Z,13.85
2022-07-29T05:04:21.531Z,15.88
2022-07-29T05:05:53.687Z,13.98
2022-07-29T05:07:25.795Z,19.95
2022-07-29T05:08:57.818Z,14.18
2022-07-29T05:10:30.151Z,13.75
2022-07-29T05:12:02.703Z,14.57
2022-07-29T05:13:46.321Z,14.15
2022-07-29T05:15:19.545Z,14.32
2022-07-29T05:16:52.434Z,14.30
2022-07-29T05:18:26.168Z,14.65
2022-07-29T05:19:58.511Z,14.35
2022-07-29T05:21:30.738Z,15.48
2022-07-29T05:23:04.259Z,16.55
2022-07-29T05:24:36.312Z,13.38
2022-07-29T05:26:08.828Z,14.18
2022-07-29T05:27:41.100Z,14.02
2022-07-29T05:29:43.640Z,15.57
2022-07-29T05:31:05.549Z,14.60
2022-07-29T05:32:37.767Z,14.27
2022-07-29T05:34:09.807Z,14.23
2022-07-29T05:35:41.855Z,13.32
2022-07-29T05:37:16.740Z,13.23
2022-07-29T05:38:49.093Z,13.27
2022-07-29T05:40:21.784Z,15.13
2022-07-29T05:41:54.186Z,13.50
2022-07-29T05:43:27.267Z,14.10
2022-07-29T05:44:59.701Z,12.95
2022-07-29T05:46:32.213Z,14.10
2022-07-29T05:48:05.587Z,13.70
2022-07-29T05:49:38.120Z,13.73
2022-07-29T05:51:10.198Z,15.05
2022-07-29T05:52:42.292Z,15.45
2022-07-29T05:54:14.626Z,14.82
2022-07-29T05:55:47.367Z,14.48
2022-07-29T05:57:23.558Z,12.68
2022-07-29T05:58:55.983Z,12.88
2022-07-29T06:00:28.597Z,13.85
2022-07-29T06:02:01.992Z,16.83
2022-07-29T06:03:34.400Z,15.35
2022-07-29T06:05:07.243Z,12.85
2022-07-29T06:06:47.662Z,14.15
2022-07-29T06:08:20.040Z,14.15
2022-07-29T06:09:52.436Z,13.80
2022-07-29T06:11:24.698Z,13.23
2022-07-29T06:12:57.090Z,15.50
2022-07-29T06:14:29.819Z,11.85
2022-07-29T06:16:02.050Z,11.18
2022-07-29T06:17:34.515Z,11.88
2022-07-29T06:19:06.935Z,12.57
2022-07-29T06:20:39.300Z,11.57
2022-07-29T06:22:11.779Z,13.10
2022-07-29T06:23:44.029Z,12.98
2022-07-29T06:25:16.558Z,13.38
2022-07-29T06:26:49.040Z,13.52
2022-07-29T06:28:21.642Z,18.08
2022-07-29T06:29:53.896Z,12.18
2022-07-29T06:31:26.304Z,12.13
2022-07-29T06:32:58.538Z,16.23
2022-07-29T06:34:30.881Z,12.45
2022-07-29T06:36:06.069Z,12.60
2022-07-29T06:37:38.348Z,11.68
2022-07-29T06:39:11.658Z,13.43
2022-07-29T06:41:04.082Z,12.05
2022-07-29T06:42:36.305Z,13.35
2022-07-29T06:44:08.676Z,12.45
2022-07-29T06:45:42.764Z,11.88
2022-07-29T06:47:15.233Z,10.65
2022-07-29T06:48:49.317Z,11.30
2022-07-29T06:50:23.034Z,11.57
2022-07-29T06:51:57.089Z,11.73
2022-07-29T06:53:30.306Z,12.27
2022-07-29T06:56:40.283Z,13.23
2022-07-29T06:58:13.377Z,14.45
2022-07-29T06:59:45.773Z,11.38
2022-07-29T07:01:18.120Z,12.50
2022-07-29T07:02:50.307Z,11.43
2022-07-29T07:04:22.481Z,11.25
2022-07-29T07:05:55.763Z,12.13
2022-07-29T07:07:28.174Z,11.27
2022-07-29T07:09:00.542Z,12.68
2022-07-29T07:10:34.251Z,11.20
2022-07-29T07:12:06.531Z,11.60
2022-07-29T07:13:38.920Z,11.23
2022-07-29T07:15:11.934Z,11.23
2022-07-29T07:16:44.679Z,9.98
2022-07-29T07:18:18.083Z,10.35
2022-07-29T07:19:50.192Z,11.15
2022-07-29T07:21:22.492Z,9.55
2022-07-29T07:22:55.089Z,11.67
2022-07-29T07:24:27.427Z,10.23
2022-07-29T07:25:59.721Z,10.55
2022-07-29T07:27:32.122Z,11.57
2022-07-29T07:29:04.508Z,9.75
2022-07-29T07:30:37.023Z,11.48
2022-07-29T07:32:09.453Z,11.38
2022-07-29T07:33:41.887Z,11.75
2022-07-29T07:35:14.483Z,10.45
2022-07-29T07:36:46.674Z,10.02
2022-07-29T07:38:19.184Z,11.07
2022-07-29T07:39:52.053Z,8.80
2022-07-29T07:41:24.995Z,9.40
2022-07-29T07:42:57.342Z,10.50
2022-07-29T07:44:29.778Z,9.52
2022-07-29T07:46:02.191Z,15.98
2022-07-29T07:47:34.708Z,11.77
2022-07-29T07:49:06.978Z,9.25
2022-07-29T07:50:39.388Z,13.15
2022-07-29T07:52:11.751Z,10.18
2022-07-29T07:53:46.217Z,9.70
2022-07-29T07:55:19.065Z,9.77
2022-07-29T07:56:53.099Z,9.90
2022-07-29T07:58:25.852Z,8.82
2022-07-29T07:59:58.127Z,9.52
2022-07-29T08:01:50.440Z,10.17
2022-07-29T08:03:24.505Z,13.05
2022-07-29T08:04:56.841Z,9.73
2022-07-29T08:06:29.261Z,10.52
2022-07-29T08:08:01.673Z,8.98
2022-07-29T08:09:34.713Z,9.32
2022-07-29T08:11:09.739Z,9.05
2022-07-29T08:12:42.479Z,9.15
2022-07-29T08:14:15.534Z,11.00
2022-07-29T08:15:48.869Z,9.60
2022-07-29T08:18:58.184Z,10.88
2022-07-29T08:20:31.209Z,9.32
2022-07-29T08:22:03.660Z,10.98
2022-07-29T08:23:51.498Z,10.50
2022-07-29T08:25:26.933Z,11.00
2022-07-29T08:26:59.675Z,10.00
2022-07-29T08:28:32.690Z,9.45
2022-07-29T08:31:38.622Z,9.82
2022-07-29T08:33:11.005Z,9.48
2022-07-29T08:34:43.865Z,11.25
2022-07-29T08:36:16.177Z,10.25
2022-07-29T08:37:49.605Z,11.65
2022-07-29T08:39:22.132Z,16.75
2022-07-29T08:40:54.839Z,12.55
2022-07-29T08:42:27.266Z,9.52
2022-07-29T08:43:59.755Z,10.90
2022-07-29T08:45:44.275Z,12.00
2022-07-29T08:47:19.724Z,10.02
2022-07-29T08:48:52.156Z,9.93
2022-07-29T08:50:24.526Z,10.30
2022-07-29T08:51:57.742Z,12.00
2022-07-29T08:53:30.712Z,9.57
2022-07-29T08:55:03.628Z,10.57
2022-07-29T08:56:36.115Z,9.80
2022-07-29T08:58:08.926Z,11.02
2022-07-29T08:59:44.738Z,9.75
2022-07-29T09:01:19.547Z,9.48
2022-07-29T09:02:58.296Z,9.90
2022-07-29T09:04:35.987Z,8.90
2022-07-29T09:06:08.430Z,10.15
2022-07-29T09:07:41.077Z,9.82
2022-07-29T09:09:15.141Z,9.50
2022-07-29T09:10:47.750Z,8.95
2022-07-29T09:12:28.759Z,10.27
2022-07-29T09:14:02.602Z,9.82
2022-07-29T09:15:35.029Z,10.13
2022-07-29T09:17:08.113Z,9.25
2022-07-29T09:18:45.702Z,9.65
2022-07-29T09:20:20.810Z,9.23
2022-07-29T09:21:59.632Z,9.15
2022-07-29T09:23:32.003Z,10.00
2022-07-29T09:25:07.649Z,10.85
2022-07-29T09:26:45.267Z,9.30
2022-07-29T09:28:18.777Z,9.60
2022-07-29T09:30:28.887Z,9.88
2022-07-29T09:32:08.678Z,9.15
2022-07-29T09:33:43.400Z,9.73
2022-07-29T09:35:21.538Z,9.48
2022-07-29T09:36:56.059Z,10.35
2022-07-29T09:38:28.666Z,11.27
2022-07-29T09:40:01.446Z,8.98
2022-07-29T09:41:56.130Z,9.23
2022-07-29T09:43:28.918Z,8.88
2022-07-29T09:45:01.488Z,9.40
2022-07-29T09:46:34.057Z,10.55
2022-07-29T09:48:24.017Z,11.50
2022-07-29T09:50:00.845Z,9.85
2022-07-29T09:51:38.556Z,9.77
2022-07-29T09:53:12.076Z,10.57
2022-07-29T09:54:47.409Z,8.70
2022-07-29T09:56:19.782Z,10.43
2022-07-29T09:57:52.186Z,9.52
2022-07-29T09:59:27.863Z,11.20
2022-07-29T10:01:00.268Z,8.98
2022-07-29T10:02:33.927Z,10.35
2022-07-29T10:04:06.549Z,10.23
2022-07-29T10:05:38.868Z,8.63
2022-07-29T10:07:11.175Z,9.07
2022-07-29T10:08:43.583Z,9.88
2022-07-29T10:10:27.133Z,10.45
2022-07-29T10:12:10.569Z,10.30
2022-07-29T10:15:17.484Z,10.82
2022-07-29T10:16:50.047Z,9.48
2022-07-29T10:18:22.368Z,12.27
2022-07-29T10:19:54.889Z,9.55
2022-07-29T10:21:36.253Z,8.95
2022-07-29T10:23:10.395Z,9.77
2022-07-29T10:24:42.926Z,9.02
2022-07-29T10:26:16.031Z,8.82
2022-07-29T10:29:21.488Z,13.07
2022-07-29T10:31:02.103Z,10.20
2022-07-29T10:32:37.185Z,13.02
2022-07-29T10:34:18.418Z,9.63
2022-07-29T10:36:02.342Z,18.65
2022-07-29T10:37:45.934Z,10.38
2022-07-29T10:39:45.205Z,8.95
2022-07-29T10:41:32.384Z,9.88
2022-07-29T10:43:24.856Z,11.57
2022-07-29T10:44:57.734Z,8.85
2022-07-29T10:46:37.247Z,11.95
2022-07-29T10:48:10.587Z,9.68
2022-07-29T10:49:57.606Z,8.57
2022-07-29T10:51:52.631Z,9.75
2022-07-29T10:53:25.685Z,9.15
2022-07-29T10:55:01.937Z,10.93
2022-07-29T10:56:35.347Z,9.65
2022-07-29T10:58:15.161Z,8.75
2022-07-29T10:59:53.295Z,12.60
2022-07-29T11:01:37.442Z,9.95
2022-07-29T11:03:12.396Z,9.18
2022-07-29T11:04:48.588Z,9.73
2022-07-29T11:06:26.416Z,10.07
2022-07-29T11:08:20.447Z,10.45
2022-07-29T11:11:51.355Z,9.43
2022-07-29T11:13:53.393Z,8.98
2022-07-29T11:15:28.599Z,10.55
2022-07-29T11:17:08.556Z,10.80
2022-07-29T11:19:13.254Z,10.73
2022-07-29T11:20:49.843Z,9.43
2022-07-29T11:22:46.066Z,11.85
2022-07-29T11:24:35.946Z,10.77
2022-07-29T11:26:12.760Z,11.30
2022-07-29T11:27:48.370Z,10.23
2022-07-29T11:29:23.694Z,8.98
2022-07-29T11:30:56.746Z,9.77
2022-07-29T11:32:40.255Z,10.23
2022-07-29T11:34:31.607Z,8.20
2022-07-29T11:36:16.792Z,8.63
2022-07-29T11:38:38.692Z,9.18
2022-07-29T11:40:15.652Z,9.60
2022-07-29T11:41:48.185Z,11.07
2022-07-29T11:43:53.509Z,10.23
2022-07-29T11:47:07.231Z,10.40
2022-07-29T11:48:43.586Z,9.07
2022-07-29T11:50:33.528Z,8.93
2022-07-29T11:52:07.211Z,9.32
2022-07-29T11:53:48.764Z,8.95
2022-07-29T11:55:32.600Z,10.30
2022-07-29T11:57:08.683Z,10.02
2022-07-29T11:58:41.318Z,9.20
2022-07-29T12:00:16.282Z,9.15
2022-07-29T12:02:12.006Z,10.73
2022-07-29T12:04:04.763Z,10.90
2022-07-29T12:05:48.070Z,12.43
2022-07-29T12:07:33.694Z,10.35
2022-07-29T12:09:11.237Z,12.15
2022-07-29T12:10:49.278Z,11.35
2022-07-29T12:12:22.387Z,9.52
2022-07-29T12:13:56.996Z,10.48
2022-07-29T12:15:39.495Z,10.10
2022-07-29T12:17:30.513Z,10.23
2022-07-29T12:19:06.077Z,9.80
2022-07-29T12:20:38.531Z,9.77
2022-07-29T12:22:11.113Z,9.38
2022-07-29T12:24:01.887Z,9.10
2022-07-29T12:25:38.541Z,10.43
2022-07-29T12:27:10.891Z,11.38
2022-07-29T12:28:44.712Z,8.93
2022-07-29T12:30:19.611Z,9.05
2022-07-29T12:31:57.736Z,9.60
2022-07-29T12:33:31.295Z,9.40
2022-07-29T12:35:06.775Z,11.02
2022-07-29T12:36:39.468Z,9.05
2022-07-29T12:38:13.805Z,9.27
2022-07-29T12:39:46.769Z,9.88
2022-07-29T12:41:19.250Z,10.50
2022-07-29T12:43:11.649Z,9.35
2022-07-29T12:44:51.536Z,9.80
2022-07-29T12:46:24.211Z,9.23
2022-07-29T12:47:56.478Z,11.18
2022-07-29T12:49:28.789Z,9.00
2022-07-29T12:51:03.594Z,10.50
2022-07-29T12:52:36.690Z,10.30
2022-07-29T12:54:17.383Z,9.10
2022-07-29T12:55:55.969Z,9.70
2022-07-29T12:57:29.104Z,11.85
2022-07-29T12:59:01.520Z,10.20
2022-07-29T13:00:34.021Z,10.38
2022-07-29T13:02:06.435Z,10.02
2022-07-29T13:03:59.797Z,10.10
2022-07-29T13:05:49.094Z,9.70
2022-07-29T13:07:55.416Z,9.02
2022-07-29T13:09:23.925Z,9.73
2022-07-29T13:10:56.328Z,8.70
2022-07-29T13:12:29.507Z,9.63
2022-07-29T13:15:41.547Z,8.85
2022-07-29T13:17:17.114Z,9.98
2022-07-29T13:18:49.740Z,8.98
2022-07-29T13:20:26.222Z,8.80
2022-07-29T13:21:59.080Z,9.30
2022-07-29T13:23:31.665Z,9.40
2022-07-29T13:25:11.316Z,9.13
2022-07-29T13:28:15.990Z,11.55
2022-07-29T13:29:48.617Z,9.60
2022-07-29T13:31:21.061Z,9.70
2022-07-29T13:32:54.421Z,10.15
2022-07-29T13:34:27.011Z,9.02
2022-07-29T13:35:59.237Z,8.57
2022-07-29T13:37:32.026Z,8.77
2022-07-29T13:39:05.213Z,10.52
2022-07-29T13:40:38.090Z,8.80
2022-07-29T13:42:11.166Z,9.07
2022-07-29T13:43:43.494Z,9.15
2022-07-29T13:45:15.788Z,9.43
2022-07-29T13:46:48.150Z,9.43
2022-07-29T13:48:21.027Z,9.07
2022-07-29T13:51:25.515Z,9.65
2022-07-29T13:52:57.817Z,8.65
2022-07-29T13:54:30.308Z,9.80
2022-07-29T13:56:02.630Z,10.98
2022-07-29T13:57:35.033Z,13.35
2022-07-29T13:59:07.447Z,9.95
2022-07-29T14:00:39.996Z,9.10
2022-07-29T14:02:13.639Z,11.38
2022-07-29T14:03:48.076Z,7.93
2022-07-29T14:05:20.678Z,10.05
2022-07-29T14:06:53.192Z,9.07
2022-07-29T14:08:25.608Z,8.20
2022-07-29T14:09:58.377Z,10.35
2022-07-29T14:11:30.774Z,8.13
2022-07-29T14:13:03.442Z,9.25
2022-07-29T14:14:37.840Z,9.52
2022-07-29T14:16:10.458Z,9.80
2022-07-29T14:17:42.886Z,9.05
2022-07-29T14:19:15.320Z,10.48
2022-07-29T14:20:47.865Z,8.82
2022-07-29T14:22:20.624Z,8.60
2022-07-29T14:23:57.682Z,9.95
2022-07-29T14:27:02.702Z,9.15
2022-07-29T14:28:36.925Z,11.50
2022-07-29T14:30:12.925Z,10.10
2022-07-29T14:31:45.414Z,10.20
2022-07-29T14:33:17.849Z,8.80
2022-07-29T14:34:50.287Z,8.85
2022-07-29T14:36:25.507Z,10.45
2022-07-29T14:37:58.713Z,8.88
2022-07-29T14:39:31.912Z,8.90
2022-07-29T14:41:05.104Z,8.70
2022-07-29T14:44:11.170Z,13.57
2022-07-29T14:45:43.417Z,8.95
2022-07-29T14:47:15.881Z,11.90
2022-07-29T14:48:48.323Z,14.55
2022-07-29T14:50:23.289Z,20.65
2022-07-29T14:52:04.992Z,18.85
2022-07-29T14:53:37.443Z,20.38
2022-07-29T14:55:16.507Z,18.65
2022-07-29T14:56:56.652Z,21.50
2022-07-29T14:58:28.988Z,14.98
2022-07-29T15:00:01.307Z,14.50
2022-07-29T15:01:33.831Z,17.98
2022-07-29T15:03:06.902Z,14.15
2022-07-29T15:04:43.870Z,12.90
2022-07-29T15:06:16.189Z,14.40
2022-07-29T15:07:48.495Z,14.68
2022-07-29T15:09:20.824Z,14.65
2022-07-29T15:10:53.248Z,13.55
2022-07-29T15:12:25.350Z,13.15
2022-07-29T15:13:57.697Z,21.92
2022-07-29T15:15:30.213Z,13.20
2022-07-29T15:17:02.578Z,14.25
2022-07-29T15:18:39.117Z,12.93
2022-07-29T15:20:13.156Z,13.00
2022-07-29T15:21:59.547Z,12.75
2022-07-29T15:23:32.415Z,10.95
2022-07-29T15:25:05.095Z,12.75
2022-07-29T15:26:37.567Z,12.48
2022-07-29T15:28:10.355Z,13.27
2022-07-29T15:29:43.554Z,11.82
2022-07-29T15:32:48.308Z,12.93
2022-07-29T15:34:28.537Z,17.05
2022-07-29T15:36:01.189Z,12.63
2022-07-29T15:37:49.004Z,14.90
2022-07-29T15:39:22.904Z,14.50
2022-07-29T15:40:55.261Z,15.68
2022-07-29T15:42:27.685Z,12.07
2022-07-29T15:44:00.270Z,13.07
2022-07-29T15:46:03.694Z,15.25
2022-07-29T15:47:39.119Z,12.98
2022-07-29T15:49:11.539Z,14.65
2022-07-29T15:50:47.205Z,13.95
2022-07-29T15:52:26.107Z,13.73
2022-07-29T15:53:58.893Z,12.18
2022-07-29T15:55:31.261Z,13.07
2022-07-29T15:57:05.545Z,12.88
2022-07-29T15:58:37.976Z,12.30
2022-07-29T16:00:11.911Z,14.65
2022-07-29T16:01:44.347Z,13.63
2022-07-29T16:03:17.007Z,14.23
2022-07-29T16:04:49.617Z,11.70
2022-07-29T16:06:22.617Z,14.23
2022-07-29T16:07:54.989Z,11.77
2022-07-29T16:09:27.391Z,13.93
2022-07-29T16:10:59.740Z,13.18
2022-07-29T16:12:32.106Z,12.15
2022-07-29T16:14:04.972Z,12.63
2022-07-29T16:15:37.377Z,14.52
2022-07-29T16:17:09.758Z,13.68
2022-07-29T16:18:47.250Z,13.52
2022-07-29T16:20:21.234Z,14.63
2022-07-29T16:21:59.542Z,12.07
2022-07-29T16:23:32.773Z,11.75
2022-07-29T16:25:05.701Z,13.05
2022-07-29T16:26:38.136Z,13.15
2022-07-29T16:28:11.736Z,12.68
2022-07-29T16:29:44.346Z,12.65
2022-07-29T16:31:16.865Z,13.07
2022-07-29T16:32:49.564Z,16.42
2022-07-29T16:34:21.915Z,13.18
2022-07-29T16:35:54.246Z,12.13
2022-07-29T16:37:28.724Z,15.23
2022-07-29T16:39:01.331Z,13.18
2022-07-29T16:40:33.941Z,12.10
2022-07-29T16:42:06.613Z,13.68
2022-07-29T16:43:39.342Z,16.60
2022-07-29T16:45:11.980Z,13.15
2022-07-29T16:46:45.624Z,16.83
2022-07-29T16:48:18.788Z,14.45
2022-07-29T16:49:51.526Z,12.95
2022-07-29T16:51:24.227Z,15.07
2022-07-29T16:52:56.895Z,13.73
2022-07-29T16:54:29.378Z,11.65
2022-07-29T16:56:02.366Z,13.82
2022-07-29T16:57:34.797Z,11.80
2022-07-29T16:59:07.110Z,15.60
2022-07-29T17:00:39.562Z,12.83
2022-07-29T17:02:12.822Z,13.35
2022-07-29T17:04:11.268Z,13.13
2022-07-29T17:05:52.751Z,12.15
2022-07-29T17:07:26.986Z,11.65
2022-07-29T17:08:59.387Z,11.25
2022-07-29T17:10:31.713Z,11.40
2022-07-29T17:12:04.333Z,12.53
2022-07-29T17:13:36.630Z,13.13
2022-07-29T17:15:11.586Z,11.98
2022-07-29T17:16:44.104Z,12.98
2022-07-29T17:18:33.290Z,11.65
2022-07-29T17:20:06.475Z,12.48
2022-07-29T17:23:21.115Z,11.52
2022-07-29T17:24:53.811Z,18.67
2022-07-29T17:26:28.230Z,12.27
2022-07-29T17:28:01.305Z,13.82
2022-07-29T17:29:35.440Z,12.75
2022-07-29T17:31:08.011Z,15.27
2022-07-29T17:32:41.231Z,11.63
2022-07-29T17:36:04.777Z,12.95
2022-07-29T17:37:37.388Z,13.48
2022-07-29T17:39:11.822Z,13.15
2022-07-29T17:40:44.250Z,12.25
2022-07-29T17:42:16.735Z,12.30
2022-07-29T17:43:50.134Z,12.77
2022-07-29T17:45:22.525Z,12.80
2022-07-29T17:46:54.937Z,13.00
2022-07-29T17:48:27.554Z,12.70
2022-07-29T17:49:59.985Z,12.88
2022-07-29T17:51:32.462Z,13.57
2022-07-29T17:53:04.907Z,12.85
2022-07-29T17:56:22.482Z,16.90
2022-07-29T17:57:59.727Z,13.77
2022-07-29T17:59:32.256Z,15.43
2022-07-29T18:01:04.949Z,17.17
2022-07-29T18:02:37.975Z,14.00
2022-07-29T18:05:42.908Z,14.73
2022-07-29T18:07:15.477Z,17.52
2022-07-29T18:08:48.261Z,17.88
2022-07-29T18:10:20.642Z,15.82
2022-07-29T18:11:53.161Z,15.15
2022-07-29T18:13:26.863Z,16.73
2022-07-29T18:14:59.154Z,16.17
2022-07-29T18:16:31.555Z,14.80
2022-07-29T18:18:03.970Z,17.35
2022-07-29T18:19:36.227Z,14.00
2022-07-29T18:21:08.611Z,14.03
2022-07-29T18:22:41.107Z,19.02
2022-07-29T18:24:13.425Z,16.02
2022-07-29T18:25:45.856Z,18.70
2022-07-29T18:27:18.088Z,17.30
2022-07-29T18:28:50.391Z,16.23
2022-07-29T18:30:22.814Z,15.23
2022-07-29T18:31:55.137Z,14.27
2022-07-29T18:33:28.312Z,14.40
2022-07-29T18:36:35.423Z,13.43
2022-07-29T18:38:07.589Z,21.98
2022-07-29T18:39:40.077Z,12.00
2022-07-29T18:41:12.545Z,14.82
2022-07-29T18:42:45.012Z,13.35
2022-07-29T18:44:18.222Z,13.88
2022-07-29T18:45:51.279Z,13.65
2022-07-29T18:49:04.554Z,14.35
2022-07-29T18:50:37.061Z,13.15
2022-07-29T18:52:09.478Z,15.13
2022-07-29T18:53:41.929Z,13.05
2022-07-29T18:55:14.506Z,13.23
2022-07-29T18:56:47.546Z,12.85
2022-07-29T18:58:19.803Z,13.68
2022-07-29T18:59:53.032Z,13.38
2022-07-29T19:03:04.449Z,13.85
2022-07-29T19:04:36.876Z,13.93
2022-07-29T19:06:09.401Z,14.43
2022-07-29T19:07:43.815Z,14.15
2022-07-29T19:09:17.648Z,12.88
2022-07-29T19:10:49.899Z,13.27
2022-07-29T19:12:22.230Z,13.53
2022-07-29T19:13:54.857Z,14.73
2022-07-29T19:15:30.185Z,13.43
2022-07-29T19:17:03.200Z,14.52
2022-07-29T19:18:35.558Z,13.88
2022-07-29T19:20:08.525Z,13.02
2022-07-29T19:21:41.892Z,13.80
2022-07-29T19:23:14.395Z,14.13
2022-07-29T19:24:46.809Z,14.60
2022-07-29T19:26:20.984Z,13.25
2022-07-29T19:27:53.428Z,13.75
2022-07-29T19:29:27.055Z,12.73
2022-07-29T19:30:59.897Z,13.73
2022-07-29T19:32:32.194Z,13.35
2022-07-29T19:34:04.546Z,13.23
2022-07-29T19:35:37.378Z,12.75
2022-07-29T19:37:09.698Z,14.40
2022-07-29T21:48:18.791Z,14.55
2022-07-29T21:49:52.088Z,15.00
2022-07-29T21:52:56.207Z,14.05
2022-07-29T21:54:28.373Z,15.85
2022-07-29T21:56:00.515Z,14.90
2022-07-29T21:57:33.007Z,17.58
2022-07-29T21:59:05.037Z,15.20
2022-07-29T22:00:42.693Z,13.95
2022-07-29T22:02:14.795Z,12.85
2022-07-29T22:03:46.899Z,15.43
2022-07-29T22:05:19.390Z,13.52
2022-07-29T22:06:51.406Z,16.77
2022-07-29T22:08:23.557Z,13.00
2022-07-29T22:09:55.734Z,14.73
2022-07-29T22:11:27.963Z,13.60
2022-07-29T22:13:01.118Z,16.80
2022-07-29T22:14:33.261Z,17.58
2022-07-29T22:16:05.642Z,13.98
2022-07-29T22:17:37.801Z,13.10
2022-07-29T22:19:09.882Z,14.23
2022-07-29T22:20:42.027Z,14.73
2022-07-29T22:22:14.155Z,11.80
2022-07-29T22:23:46.271Z,13.98
2022-07-29T22:25:18.402Z,15.07
2022-07-29T22:26:50.537Z,13.63
2022-07-29T22:28:22.594Z,14.35
2022-07-29T22:29:54.761Z,13.60
2022-07-29T22:31:26.861Z,14.77
2022-07-29T22:32:59.023Z,15.38
2022-07-29T22:34:37.116Z,14.80
2022-07-29T22:36:10.823Z,16.38
2022-07-29T22:37:42.882Z,15.07
2022-07-29T22:39:15.679Z,13.23
2022-07-29T22:40:50.580Z,15.07
2022-07-29T22:42:23.106Z,14.40
2022-07-29T22:43:55.232Z,14.93
2022-07-29T22:45:27.833Z,14.27
2022-07-29T22:47:00.618Z,14.85
2022-07-29T22:48:32.972Z,15.05
2022-07-29T22:50:05.666Z,18.02
2022-07-29T22:51:37.910Z,12.27
2022-07-29T22:53:10.010Z,13.15
2022-07-29T22:54:42.080Z,13.55
2022-07-29T22:56:14.109Z,14.93
2022-07-29T22:57:46.235Z,12.45
2022-07-29T22:59:21.283Z,14.85
2022-07-29T23:00:53.450Z,14.38
2022-07-29T23:02:25.486Z,16.70
2022-07-29T23:03:57.631Z,14.90
2022-07-29T23:05:29.908Z,14.43
2022-07-29T23:07:02.236Z,15.55
2022-07-29T23:08:35.045Z,17.50
2022-07-29T23:10:07.497Z,14.50
2022-07-29T23:11:40.577Z,15.52
2022-07-29T23:13:12.761Z,17.63
2022-07-29T23:14:44.919Z,14.52
2022-07-29T23:16:26.614Z,14.13
2022-07-29T23:17:59.165Z,13.55
2022-07-29T23:19:31.428Z,14.95
2022-07-29T23:21:03.482Z,14.10
2022-07-29T23:22:36.330Z,13.77
2022-07-29T23:24:08.467Z,13.80
2022-07-29T23:25:40.672Z,14.00